DAL9 EGLL-KMSP
Flight info
| Callsign | DAL9 |
|---|---|
| Flight time | N/A |
| Altitude | 34000 |
| Route | UMLAT T418 WELIN T420 TNT UL28 RODOL UM65 TENSO L603 BELOX DCT AMCON DCT TUXOS DCT GOMUP/M081F340 DCT 58N020W 5730N03000W 5730N04000W 57N050W DCT HOIST/N0465F340 DCT BROME/N0477F380 DCT PEMLU DCT YQT DCT DLH DCT MILAC BAINY3 |
| Aircraft | A339/H-SADE1E2E3GHIJ3J5M1P2RWXY/LB2D1 |
Departure
| Time | 2026-05-07 12:54 |
|---|---|
| Airport | London Heathrow Airport (EGLL) |
Arrival
| Time | N/A |
|---|---|
| Airport | Minneapolis–Saint Paul International Airport / Wold–Chamberlain Field (KMSP) |
| Time | Latitude | Longitude | Altitude | Speed | Heading |
|---|---|---|---|---|---|
| 2026-05-07 12:32 | 51.46962 | -0.46472 | 100 ft | 0 kts | 56° |
| 2026-05-07 12:43 | 51.46962 | -0.46473 | 100 ft | 1 kts | 56° |
| 2026-05-07 12:43 | 51.46953 | -0.46491 | 100 ft | 2 kts | 51° |
| 2026-05-07 12:43 | 51.46943 | -0.46509 | 100 ft | 2 kts | 52° |
| 2026-05-07 12:44 | 51.46934 | -0.46528 | 100 ft | 2 kts | 52° |
| 2026-05-07 12:44 | 51.46925 | -0.46547 | 100 ft | 2 kts | 52° |
| 2026-05-07 12:44 | 51.46918 | -0.46567 | 100 ft | 2 kts | 91° |
| 2026-05-07 12:44 | 51.46922 | -0.46589 | 100 ft | 1 kts | 136° |
| 2026-05-07 12:45 | 51.46928 | -0.46596 | 100 ft | 1 kts | 146° |
| 2026-05-07 12:45 | 51.46929 | -0.46597 | 100 ft | 0 kts | 146° |
| 2026-05-07 12:46 | 51.46928 | -0.46596 | 100 ft | 0 kts | 146° |
| 2026-05-07 12:46 | 51.46907 | -0.46574 | 100 ft | 5 kts | 146° |
| 2026-05-07 12:47 | 51.46872 | -0.46534 | 100 ft | 6 kts | 145° |
| 2026-05-07 12:47 | 51.46829 | -0.46485 | 100 ft | 8 kts | 145° |
| 2026-05-07 12:47 | 51.46778 | -0.46433 | 100 ft | 8 kts | 159° |
| 2026-05-07 12:47 | 51.46716 | -0.46421 | 100 ft | 9 kts | 180° |
| 2026-05-07 12:48 | 51.46662 | -0.46455 | 100 ft | 9 kts | 251° |
| 2026-05-07 12:48 | 51.46658 | -0.46563 | 100 ft | 10 kts | 269° |
| 2026-05-07 12:48 | 51.46656 | -0.46696 | 100 ft | 13 kts | 270° |
| 2026-05-07 12:48 | 51.46656 | -0.46850 | 100 ft | 14 kts | 270° |
| 2026-05-07 12:49 | 51.46656 | -0.47015 | 100 ft | 15 kts | 270° |
| 2026-05-07 12:49 | 51.46655 | -0.47182 | 100 ft | 15 kts | 270° |
| 2026-05-07 12:49 | 51.46655 | -0.47350 | 100 ft | 15 kts | 270° |
| 2026-05-07 12:49 | 51.46654 | -0.47519 | 100 ft | 15 kts | 270° |
| 2026-05-07 12:50 | 51.46654 | -0.47690 | 100 ft | 15 kts | 270° |
| 2026-05-07 12:50 | 51.46653 | -0.47859 | 100 ft | 15 kts | 270° |
| 2026-05-07 12:50 | 51.46652 | -0.48030 | 100 ft | 15 kts | 270° |
| 2026-05-07 12:50 | 51.46652 | -0.48203 | 100 ft | 15 kts | 270° |
| 2026-05-07 12:51 | 51.46651 | -0.48374 | 100 ft | 15 kts | 270° |
| 2026-05-07 12:51 | 51.46650 | -0.48545 | 100 ft | 15 kts | 270° |
| 2026-05-07 12:51 | 51.46651 | -0.48669 | 100 ft | 7 kts | 271° |
| 2026-05-07 12:51 | 51.46629 | -0.48743 | 100 ft | 8 kts | 220° |
| 2026-05-07 12:52 | 51.46572 | -0.48777 | 100 ft | 9 kts | 187° |
| 2026-05-07 12:52 | 51.46505 | -0.48774 | 100 ft | 9 kts | 155° |
| 2026-05-07 12:52 | 51.46476 | -0.48707 | 100 ft | 4 kts | 102° |
| 2026-05-07 12:52 | 51.46476 | -0.48666 | 100 ft | 4 kts | 89° |
| 2026-05-07 12:53 | 51.46478 | -0.48423 | 100 ft | 52 kts | 90° |
| 2026-05-07 12:53 | 51.46480 | -0.47492 | 100 ft | 113 kts | 89° |
| 2026-05-07 12:53 | 51.46489 | -0.45926 | 101 ft | 165 kts | 90° |
| 2026-05-07 12:53 | 51.46507 | -0.43986 | 606 ft | 170 kts | 89° |
| 2026-05-07 12:54 | 51.46551 | -0.42111 | 1223 ft | 171 kts | 81° |
| 2026-05-07 12:54 | 51.47041 | -0.40410 | 1798 ft | 173 kts | 54° |
| 2026-05-07 12:54 | 51.47799 | -0.38903 | 2125 ft | 181 kts | 51° |
| 2026-05-07 12:54 | 51.48642 | -0.37288 | 2377 ft | 194 kts | 51° |
| 2026-05-07 12:55 | 51.49527 | -0.35579 | 2665 ft | 206 kts | 51° |
| 2026-05-07 12:55 | 51.50476 | -0.33724 | 2929 ft | 221 kts | 52° |
| 2026-05-07 12:55 | 51.51471 | -0.31763 | 3205 ft | 236 kts | 52° |
| 2026-05-07 12:55 | 51.52486 | -0.29585 | 3482 ft | 250 kts | 64° |
| 2026-05-07 12:56 | 51.53127 | -0.26943 | 3868 ft | 261 kts | 73° |
| 2026-05-07 12:56 | 51.53649 | -0.24133 | 4474 ft | 263 kts | 74° |
| 2026-05-07 12:56 | 51.54186 | -0.21332 | 5099 ft | 264 kts | 71° |
| 2026-05-07 12:56 | 51.55132 | -0.18840 | 5621 ft | 270 kts | 40° |
| 2026-05-07 12:57 | 51.56815 | -0.17514 | 6177 ft | 274 kts | 9° |
| 2026-05-07 12:57 | 51.58710 | -0.17779 | 6711 ft | 277 kts | 338° |
| 2026-05-07 12:57 | 51.60259 | -0.19548 | 7207 ft | 280 kts | 308° |
| 2026-05-07 12:57 | 51.61447 | -0.22035 | 7747 ft | 282 kts | 310° |
| 2026-05-07 12:58 | 51.62339 | -0.23557 | 8105 ft | 284 kts | 317° |
| 2026-05-07 12:58 | 51.64407 | -0.26171 | 8840 ft | 286 kts | 326° |
| 2026-05-07 12:58 | 51.66080 | -0.27907 | 9408 ft | 288 kts | 328° |
| 2026-05-07 12:58 | 51.67792 | -0.29579 | 9937 ft | 291 kts | 329° |
| 2026-05-07 12:59 | 51.69552 | -0.31272 | 10397 ft | 296 kts | 329° |
| 2026-05-07 12:59 | 51.71340 | -0.32989 | 10634 ft | 309 kts | 329° |
| 2026-05-07 12:59 | 51.73238 | -0.34817 | 10885 ft | 322 kts | 329° |
| 2026-05-07 12:59 | 51.75164 | -0.36676 | 11229 ft | 331 kts | 329° |
| 2026-05-07 13:00 | 51.77163 | -0.38607 | 11753 ft | 335 kts | 329° |
| 2026-05-07 13:00 | 51.79149 | -0.40529 | 12305 ft | 337 kts | 329° |
| 2026-05-07 13:00 | 51.81173 | -0.42490 | 12844 ft | 340 kts | 329° |
| 2026-05-07 13:00 | 51.83191 | -0.44445 | 13364 ft | 343 kts | 329° |
| 2026-05-07 13:01 | 51.85241 | -0.46433 | 13902 ft | 345 kts | 329° |
| 2026-05-07 13:01 | 51.87286 | -0.48419 | 14423 ft | 348 kts | 328° |
| 2026-05-07 13:01 | 51.89375 | -0.50452 | 14952 ft | 350 kts | 328° |
| 2026-05-07 13:01 | 51.91450 | -0.52473 | 15476 ft | 352 kts | 328° |
| 2026-05-07 13:02 | 51.93545 | -0.54517 | 15988 ft | 355 kts | 328° |
| 2026-05-07 13:02 | 51.95660 | -0.56580 | 16497 ft | 357 kts | 328° |
| 2026-05-07 13:02 | 51.97802 | -0.58670 | 17000 ft | 359 kts | 328° |
| 2026-05-07 13:02 | 51.99932 | -0.60751 | 17489 ft | 362 kts | 328° |
| 2026-05-07 13:03 | 52.02101 | -0.62874 | 17984 ft | 364 kts | 328° |
| 2026-05-07 13:03 | 52.04258 | -0.64990 | 18474 ft | 367 kts | 328° |
| 2026-05-07 13:03 | 52.06450 | -0.67142 | 18964 ft | 369 kts | 327° |
| 2026-05-07 13:03 | 52.08635 | -0.69292 | 19426 ft | 372 kts | 327° |
| 2026-05-07 13:04 | 52.10857 | -0.71481 | 19873 ft | 375 kts | 327° |
| 2026-05-07 13:04 | 52.13099 | -0.73689 | 20315 ft | 378 kts | 327° |
| 2026-05-07 13:04 | 52.15347 | -0.75904 | 20746 ft | 380 kts | 327° |
| 2026-05-07 13:04 | 52.17588 | -0.78115 | 21153 ft | 383 kts | 327° |
| 2026-05-07 13:05 | 52.19882 | -0.80383 | 21552 ft | 386 kts | 327° |
| 2026-05-07 13:05 | 52.22166 | -0.82644 | 21950 ft | 389 kts | 327° |
| 2026-05-07 13:05 | 52.24482 | -0.84939 | 22345 ft | 391 kts | 327° |
| 2026-05-07 13:05 | 52.26799 | -0.87238 | 22724 ft | 394 kts | 327° |
| 2026-05-07 13:06 | 52.29139 | -0.89559 | 23099 ft | 396 kts | 327° |
| 2026-05-07 13:06 | 52.31530 | -0.91936 | 23465 ft | 399 kts | 327° |
| 2026-05-07 13:06 | 52.33888 | -0.94283 | 23822 ft | 401 kts | 327° |
| 2026-05-07 13:06 | 52.36275 | -0.96663 | 24177 ft | 404 kts | 327° |
| 2026-05-07 13:07 | 52.38665 | -0.99049 | 24521 ft | 406 kts | 327° |
| 2026-05-07 13:07 | 52.41071 | -1.01456 | 24856 ft | 409 kts | 327° |
| 2026-05-07 13:07 | 52.43494 | -1.03884 | 25194 ft | 411 kts | 327° |
| 2026-05-07 13:07 | 52.45942 | -1.06341 | 25506 ft | 413 kts | 328° |
| 2026-05-07 13:08 | 52.48386 | -1.08795 | 25814 ft | 416 kts | 328° |
| 2026-05-07 13:08 | 52.50867 | -1.11288 | 26121 ft | 418 kts | 328° |
| 2026-05-07 13:08 | 52.53339 | -1.13775 | 26410 ft | 420 kts | 328° |
| 2026-05-07 13:08 | 52.55839 | -1.16294 | 26702 ft | 423 kts | 328° |
| 2026-05-07 13:09 | 52.58340 | -1.18813 | 26998 ft | 424 kts | 328° |
| 2026-05-07 13:09 | 52.60854 | -1.21350 | 27286 ft | 426 kts | 328° |
| 2026-05-07 13:09 | 52.63373 | -1.23896 | 27574 ft | 428 kts | 328° |
| 2026-05-07 13:09 | 52.65918 | -1.26473 | 27855 ft | 430 kts | 328° |
| 2026-05-07 13:10 | 52.68470 | -1.29062 | 28120 ft | 432 kts | 329° |
| 2026-05-07 13:10 | 52.71007 | -1.31638 | 28374 ft | 434 kts | 329° |
| 2026-05-07 13:10 | 52.73600 | -1.34273 | 28630 ft | 436 kts | 329° |
| 2026-05-07 13:10 | 52.76159 | -1.36877 | 28882 ft | 438 kts | 329° |
| 2026-05-07 13:11 | 52.78749 | -1.39520 | 29124 ft | 440 kts | 329° |
| 2026-05-07 13:11 | 52.81354 | -1.42182 | 29364 ft | 442 kts | 329° |
| 2026-05-07 13:11 | 52.83979 | -1.44869 | 29593 ft | 444 kts | 329° |
| 2026-05-07 13:11 | 52.86538 | -1.47492 | 29815 ft | 446 kts | 329° |
| 2026-05-07 13:12 | 52.89177 | -1.50199 | 30061 ft | 448 kts | 329° |
| 2026-05-07 13:12 | 52.91804 | -1.52901 | 30294 ft | 449 kts | 329° |
| 2026-05-07 13:12 | 52.94465 | -1.55641 | 30529 ft | 451 kts | 329° |
| 2026-05-07 13:12 | 52.97144 | -1.58407 | 30753 ft | 453 kts | 329° |
| 2026-05-07 13:13 | 52.99800 | -1.61153 | 30961 ft | 454 kts | 329° |
| 2026-05-07 13:13 | 53.02468 | -1.63913 | 31166 ft | 456 kts | 329° |
| 2026-05-07 13:13 | 53.05162 | -1.66703 | 31373 ft | 457 kts | 328° |
| 2026-05-07 13:13 | 53.07869 | -1.69508 | 31573 ft | 459 kts | 329° |
| 2026-05-07 13:14 | 53.10573 | -1.72315 | 31758 ft | 460 kts | 328° |
| 2026-05-07 13:14 | 53.13283 | -1.75136 | 31940 ft | 462 kts | 328° |
| 2026-05-07 13:14 | 53.16001 | -1.77970 | 32119 ft | 463 kts | 328° |
| 2026-05-07 13:14 | 53.18756 | -1.80851 | 32294 ft | 465 kts | 328° |
| 2026-05-07 13:15 | 53.21471 | -1.83692 | 32465 ft | 466 kts | 328° |
| 2026-05-07 13:15 | 53.24162 | -1.86657 | 32612 ft | 468 kts | 322° |
| 2026-05-07 13:15 | 53.26578 | -1.90355 | 32765 ft | 470 kts | 311° |
| 2026-05-07 13:15 | 53.28596 | -1.94638 | 32932 ft | 471 kts | 304° |
| 2026-05-07 13:16 | 53.30426 | -1.99161 | 33098 ft | 472 kts | 303° |
| 2026-05-07 13:16 | 53.32221 | -2.03712 | 33259 ft | 473 kts | 303° |
| 2026-05-07 13:16 | 53.34036 | -2.08316 | 33421 ft | 474 kts | 303° |
| 2026-05-07 13:16 | 53.35857 | -2.12913 | 33625 ft | 474 kts | 303° |
| 2026-05-07 13:17 | 53.37661 | -2.17449 | 33864 ft | 474 kts | 303° |
| 2026-05-07 13:17 | 53.39498 | -2.22054 | 34002 ft | 475 kts | 303° |
| 2026-05-07 13:17 | 53.43202 | -2.31338 | 34007 ft | 484 kts | 303° |
| 2026-05-07 13:18 | 53.46954 | -2.40762 | 34008 ft | 493 kts | 303° |
| 2026-05-07 13:18 | 53.50757 | -2.50349 | 34008 ft | 497 kts | 303° |
| 2026-05-07 13:19 | 53.54582 | -2.60029 | 34007 ft | 498 kts | 303° |
| 2026-05-07 13:19 | 53.58393 | -2.69713 | 34008 ft | 498 kts | 302° |
| 2026-05-07 13:20 | 53.62185 | -2.79386 | 34007 ft | 498 kts | 302° |
| 2026-05-07 13:20 | 53.65997 | -2.89145 | 34005 ft | 498 kts | 302° |
| 2026-05-07 13:21 | 53.69779 | -2.98871 | 34004 ft | 497 kts | 302° |
| 2026-05-07 13:21 | 53.73544 | -3.08586 | 34002 ft | 498 kts | 302° |
| 2026-05-07 13:22 | 53.77307 | -3.18338 | 33999 ft | 498 kts | 302° |
| 2026-05-07 13:22 | 53.81071 | -3.28134 | 33999 ft | 498 kts | 302° |
| 2026-05-07 13:23 | 53.84820 | -3.37933 | 33997 ft | 498 kts | 302° |
| 2026-05-07 13:23 | 53.88718 | -3.47573 | 33992 ft | 498 kts | 306° |
| 2026-05-07 13:24 | 53.93129 | -3.56545 | 33983 ft | 499 kts | 312° |
| 2026-05-07 13:24 | 53.97886 | -3.64998 | 33980 ft | 499 kts | 313° |
| 2026-05-07 13:25 | 54.02713 | -3.73471 | 33978 ft | 499 kts | 313° |
| 2026-05-07 13:25 | 54.07520 | -3.81961 | 33977 ft | 499 kts | 312° |
| 2026-05-07 13:26 | 54.12339 | -3.90523 | 33973 ft | 500 kts | 312° |
| 2026-05-07 13:26 | 54.17141 | -3.99091 | 33975 ft | 500 kts | 312° |
| 2026-05-07 13:27 | 54.21921 | -4.07653 | 33973 ft | 500 kts | 312° |
| 2026-05-07 13:27 | 54.26672 | -4.16191 | 33971 ft | 500 kts | 312° |
| 2026-05-07 13:28 | 54.31454 | -4.24815 | 33966 ft | 500 kts | 311° |
| 2026-05-07 13:28 | 54.36215 | -4.33441 | 33963 ft | 500 kts | 311° |
| 2026-05-07 13:29 | 54.40992 | -4.42120 | 33961 ft | 500 kts | 311° |
| 2026-05-07 13:29 | 54.45718 | -4.50737 | 33955 ft | 500 kts | 311° |
| 2026-05-07 13:30 | 54.50458 | -4.59412 | 33956 ft | 500 kts | 311° |
| 2026-05-07 13:30 | 54.55206 | -4.68133 | 33952 ft | 500 kts | 310° |
| 2026-05-07 13:31 | 54.59930 | -4.76842 | 33946 ft | 500 kts | 310° |
| 2026-05-07 13:31 | 54.64640 | -4.85561 | 33945 ft | 500 kts | 310° |
| 2026-05-07 13:32 | 54.69373 | -4.94352 | 33942 ft | 499 kts | 310° |
| 2026-05-07 13:32 | 54.74071 | -5.03107 | 33940 ft | 499 kts | 310° |
| 2026-05-07 13:33 | 54.78768 | -5.11896 | 33934 ft | 499 kts | 310° |
| 2026-05-07 13:33 | 54.83462 | -5.20706 | 33934 ft | 499 kts | 310° |
| 2026-05-07 13:34 | 54.90456 | -5.33898 | 33939 ft | 499 kts | 309° |
| 2026-05-07 13:35 | 54.95148 | -5.42793 | 33934 ft | 498 kts | 309° |
| 2026-05-07 13:35 | 54.99655 | -5.51367 | 33921 ft | 498 kts | 309° |
| 2026-05-07 13:36 | 55.04313 | -5.60261 | 33915 ft | 498 kts | 309° |
| 2026-05-07 13:36 | 55.08963 | -5.69170 | 33908 ft | 499 kts | 308° |
| 2026-05-07 13:37 | 55.13603 | -5.78094 | 33905 ft | 498 kts | 308° |
| 2026-05-07 13:37 | 55.18212 | -5.86991 | 33907 ft | 498 kts | 308° |
| 2026-05-07 13:38 | 55.22839 | -5.95958 | 33907 ft | 498 kts | 308° |
| 2026-05-07 13:38 | 55.27464 | -6.04950 | 33904 ft | 498 kts | 308° |
| 2026-05-07 13:39 | 55.32063 | -6.13933 | 33895 ft | 498 kts | 308° |
| 2026-05-07 13:39 | 55.36686 | -6.22999 | 33891 ft | 498 kts | 308° |
| 2026-05-07 13:40 | 55.41259 | -6.31996 | 33890 ft | 498 kts | 308° |
| 2026-05-07 13:40 | 55.45867 | -6.41096 | 33887 ft | 498 kts | 307° |
| 2026-05-07 13:41 | 55.50455 | -6.50192 | 33885 ft | 498 kts | 307° |
| 2026-05-07 13:41 | 55.55023 | -6.59293 | 33884 ft | 497 kts | 307° |
| 2026-05-07 13:42 | 55.59484 | -6.68486 | 33883 ft | 495 kts | 304° |
| 2026-05-07 13:42 | 55.63824 | -6.77966 | 33881 ft | 495 kts | 303° |
| 2026-05-07 13:43 | 55.68107 | -6.87397 | 33879 ft | 495 kts | 303° |
| 2026-05-07 13:43 | 55.72408 | -6.96884 | 33877 ft | 494 kts | 303° |
| 2026-05-07 13:44 | 55.76659 | -7.06293 | 33874 ft | 494 kts | 303° |
| 2026-05-07 13:44 | 55.80958 | -7.15843 | 33875 ft | 494 kts | 303° |
| 2026-05-07 13:45 | 55.85222 | -7.25346 | 33869 ft | 493 kts | 303° |
| 2026-05-07 13:45 | 55.89467 | -7.34848 | 33865 ft | 493 kts | 303° |
| 2026-05-07 13:46 | 55.93706 | -7.44384 | 33862 ft | 492 kts | 303° |
| 2026-05-07 13:46 | 55.97918 | -7.53894 | 33859 ft | 493 kts | 303° |
| 2026-05-07 13:47 | 56.02121 | -7.63511 | 33856 ft | 492 kts | 302° |
| 2026-05-07 13:47 | 56.06310 | -7.73173 | 33846 ft | 491 kts | 301° |
| 2026-05-07 13:48 | 56.10448 | -7.82757 | 33834 ft | 490 kts | 301° |
| 2026-05-07 13:48 | 56.14588 | -7.92380 | 33828 ft | 491 kts | 301° |
| 2026-05-07 13:49 | 56.18733 | -8.02050 | 33832 ft | 490 kts | 301° |
| 2026-05-07 13:49 | 56.22883 | -8.11771 | 33829 ft | 489 kts | 301° |
| 2026-05-07 13:50 | 56.26996 | -8.21443 | 33832 ft | 489 kts | 301° |
| 2026-05-07 13:50 | 56.31096 | -8.31124 | 33820 ft | 489 kts | 301° |
| 2026-05-07 13:51 | 56.35190 | -8.40833 | 33813 ft | 489 kts | 301° |
| 2026-05-07 13:51 | 56.39256 | -8.50505 | 33810 ft | 488 kts | 301° |
| 2026-05-07 13:52 | 56.43330 | -8.60246 | 33805 ft | 488 kts | 301° |
| 2026-05-07 13:52 | 56.47405 | -8.70024 | 33796 ft | 488 kts | 300° |
| 2026-05-07 13:53 | 56.51467 | -8.79808 | 33792 ft | 487 kts | 300° |
| 2026-05-07 13:53 | 56.55489 | -8.89539 | 33789 ft | 487 kts | 299° |
| 2026-05-07 13:54 | 56.59523 | -8.99332 | 33789 ft | 487 kts | 299° |
| 2026-05-07 13:54 | 56.63544 | -9.09132 | 33781 ft | 486 kts | 299° |
| 2026-05-07 13:55 | 56.67553 | -9.18952 | 33773 ft | 485 kts | 299° |
| 2026-05-07 13:55 | 56.71558 | -9.28799 | 33771 ft | 486 kts | 299° |
| 2026-05-07 13:56 | 56.75526 | -9.38596 | 33766 ft | 484 kts | 299° |
| 2026-05-07 13:56 | 56.79520 | -9.48495 | 33759 ft | 484 kts | 299° |
| 2026-05-07 13:57 | 56.83477 | -9.58345 | 33757 ft | 483 kts | 299° |
| 2026-05-07 13:57 | 56.87422 | -9.68212 | 33756 ft | 483 kts | 298° |
| 2026-05-07 13:58 | 56.91363 | -9.78107 | 33746 ft | 483 kts | 298° |
| 2026-05-07 13:58 | 56.95185 | -9.88012 | 33744 ft | 478 kts | 294° |
| 2026-05-07 13:59 | 56.98452 | -9.98498 | 33741 ft | 471 kts | 288° |
| 2026-05-07 13:59 | 57.01017 | -10.09370 | 33724 ft | 462 kts | 282° |
| 2026-05-07 14:00 | 57.02902 | -10.20487 | 33699 ft | 457 kts | 277° |
| 2026-05-07 14:00 | 57.04483 | -10.31701 | 33707 ft | 456 kts | 277° |
| 2026-05-07 14:01 | 57.06043 | -10.42915 | 33689 ft | 457 kts | 277° |
| 2026-05-07 14:01 | 57.07604 | -10.54188 | 33693 ft | 456 kts | 277° |
| 2026-05-07 14:02 | 57.09163 | -10.65500 | 33666 ft | 458 kts | 276° |
| 2026-05-07 14:02 | 57.10704 | -10.76762 | 33684 ft | 457 kts | 276° |
| 2026-05-07 14:03 | 57.12242 | -10.88078 | 33668 ft | 456 kts | 276° |
| 2026-05-07 14:03 | 57.13755 | -10.99298 | 33649 ft | 456 kts | 277° |
| 2026-05-07 14:04 | 57.15263 | -11.10570 | 33681 ft | 456 kts | 277° |
| 2026-05-07 14:04 | 57.16767 | -11.21889 | 33678 ft | 455 kts | 277° |
| 2026-05-07 14:05 | 57.18251 | -11.33146 | 33676 ft | 455 kts | 277° |
| 2026-05-07 14:05 | 57.19738 | -11.44517 | 33682 ft | 455 kts | 277° |
| 2026-05-07 14:06 | 57.21205 | -11.55818 | 33669 ft | 456 kts | 278° |
| 2026-05-07 14:06 | 57.22666 | -11.67154 | 33659 ft | 457 kts | 277° |
| 2026-05-07 14:07 | 57.24118 | -11.78505 | 33661 ft | 457 kts | 277° |
| 2026-05-07 14:07 | 57.25566 | -11.89920 | 33657 ft | 457 kts | 277° |
| 2026-05-07 14:08 | 57.26994 | -12.01256 | 33670 ft | 457 kts | 277° |
| 2026-05-07 14:08 | 57.28425 | -12.12715 | 33660 ft | 458 kts | 277° |
| 2026-05-07 14:09 | 57.29833 | -12.24099 | 33662 ft | 458 kts | 278° |
| 2026-05-07 14:09 | 57.31237 | -12.35526 | 33671 ft | 459 kts | 278° |
| 2026-05-07 14:10 | 57.32639 | -12.47028 | 33676 ft | 459 kts | 278° |
| 2026-05-07 14:10 | 57.34022 | -12.58481 | 33656 ft | 460 kts | 278° |
| 2026-05-07 14:11 | 57.35407 | -12.70042 | 33672 ft | 460 kts | 277° |
| 2026-05-07 14:11 | 57.36778 | -12.81578 | 33670 ft | 460 kts | 277° |
| 2026-05-07 14:12 | 57.38138 | -12.93124 | 33669 ft | 461 kts | 277° |
| 2026-05-07 14:12 | 57.39488 | -13.04670 | 33679 ft | 462 kts | 278° |
| 2026-05-07 14:13 | 57.40832 | -13.16281 | 33689 ft | 462 kts | 278° |
| 2026-05-07 14:13 | 57.42160 | -13.27851 | 33681 ft | 463 kts | 278° |
| 2026-05-07 14:14 | 57.43486 | -13.39501 | 33701 ft | 463 kts | 278° |
| 2026-05-07 14:14 | 57.44803 | -13.51168 | 33712 ft | 463 kts | 278° |
| 2026-05-07 14:15 | 57.46108 | -13.62847 | 33709 ft | 463 kts | 278° |
| 2026-05-07 14:15 | 57.47400 | -13.74520 | 33714 ft | 463 kts | 278° |
| 2026-05-07 14:16 | 57.48680 | -13.86165 | 33706 ft | 464 kts | 278° |
| 2026-05-07 14:16 | 57.49953 | -13.97871 | 33719 ft | 465 kts | 278° |
| 2026-05-07 14:17 | 57.51220 | -14.09622 | 33749 ft | 464 kts | 278° |
| 2026-05-07 14:17 | 57.52473 | -14.21353 | 33753 ft | 464 kts | 278° |
| 2026-05-07 14:18 | 57.53714 | -14.33088 | 33766 ft | 466 kts | 279° |
| 2026-05-07 14:18 | 57.54951 | -14.44873 | 33773 ft | 466 kts | 278° |
| 2026-05-07 14:19 | 57.56174 | -14.56656 | 33772 ft | 466 kts | 279° |
| 2026-05-07 14:19 | 57.57385 | -14.68442 | 33779 ft | 466 kts | 278° |
| 2026-05-07 14:20 | 57.58584 | -14.80226 | 33792 ft | 466 kts | 278° |
| 2026-05-07 14:20 | 57.59779 | -14.92083 | 33794 ft | 466 kts | 278° |
| 2026-05-07 14:21 | 57.60959 | -15.03911 | 33805 ft | 466 kts | 278° |
| 2026-05-07 14:21 | 57.62123 | -15.15688 | 33797 ft | 466 kts | 278° |
| 2026-05-07 14:22 | 57.63290 | -15.27617 | 33809 ft | 467 kts | 279° |
| 2026-05-07 14:22 | 57.64435 | -15.39444 | 33820 ft | 468 kts | 278° |
| 2026-05-07 14:23 | 57.65574 | -15.51327 | 33817 ft | 468 kts | 279° |
| 2026-05-07 14:23 | 57.66702 | -15.63231 | 33827 ft | 468 kts | 279° |
| 2026-05-07 14:24 | 57.67820 | -15.75147 | 33830 ft | 468 kts | 278° |
| 2026-05-07 14:24 | 57.68930 | -15.87112 | 33835 ft | 468 kts | 278° |
| 2026-05-07 14:25 | 57.70026 | -15.99046 | 33840 ft | 468 kts | 278° |
| 2026-05-07 14:25 | 57.71111 | -16.10994 | 33853 ft | 469 kts | 278° |
| 2026-05-07 14:26 | 57.72185 | -16.22964 | 33857 ft | 469 kts | 278° |
| 2026-05-07 14:26 | 57.73255 | -16.35000 | 33875 ft | 469 kts | 278° |
| 2026-05-07 14:27 | 57.74305 | -16.46962 | 33884 ft | 470 kts | 278° |
| 2026-05-07 14:27 | 57.75353 | -16.59022 | 33887 ft | 470 kts | 278° |
| 2026-05-07 14:28 | 57.76384 | -16.71053 | 33894 ft | 470 kts | 278° |
| 2026-05-07 14:28 | 57.77403 | -16.83067 | 33901 ft | 470 kts | 278° |
| 2026-05-07 14:29 | 57.78416 | -16.95151 | 33900 ft | 471 kts | 278° |
| 2026-05-07 14:29 | 57.79411 | -17.07159 | 33907 ft | 471 kts | 278° |
| 2026-05-07 14:30 | 57.80403 | -17.19285 | 33911 ft | 471 kts | 278° |
| 2026-05-07 14:30 | 57.81377 | -17.31324 | 33922 ft | 470 kts | 278° |
| 2026-05-07 14:31 | 57.82346 | -17.43461 | 33933 ft | 471 kts | 278° |
| 2026-05-07 14:31 | 57.83293 | -17.55469 | 33931 ft | 471 kts | 278° |
| 2026-05-07 14:32 | 57.84235 | -17.67580 | 33941 ft | 471 kts | 278° |
| 2026-05-07 14:32 | 57.85166 | -17.79695 | 33950 ft | 471 kts | 278° |
| 2026-05-07 14:33 | 57.86089 | -17.91861 | 33953 ft | 471 kts | 278° |
| 2026-05-07 14:33 | 57.86996 | -18.03955 | 33956 ft | 472 kts | 278° |
| 2026-05-07 14:34 | 57.87896 | -18.16125 | 33960 ft | 472 kts | 278° |
| 2026-05-07 14:34 | 57.88783 | -18.28293 | 33965 ft | 472 kts | 278° |
| 2026-05-07 14:35 | 57.89657 | -18.40452 | 33965 ft | 472 kts | 278° |
| 2026-05-07 14:35 | 57.90520 | -18.52624 | 33974 ft | 472 kts | 278° |
| 2026-05-07 14:36 | 57.91367 | -18.64740 | 33978 ft | 472 kts | 278° |
| 2026-05-07 14:36 | 57.92209 | -18.76953 | 33987 ft | 472 kts | 277° |
| 2026-05-07 14:37 | 57.93039 | -18.89169 | 34000 ft | 472 kts | 277° |
| 2026-05-07 14:37 | 57.94256 | -19.07404 | 34024 ft | 472 kts | 277° |
| 2026-05-07 14:38 | 57.95054 | -19.19589 | 34028 ft | 472 kts | 277° |
| 2026-05-07 14:38 | 57.95842 | -19.31814 | 34036 ft | 472 kts | 277° |
| 2026-05-07 14:39 | 57.96617 | -19.44028 | 34044 ft | 473 kts | 277° |
| 2026-05-07 14:39 | 57.97386 | -19.56339 | 34047 ft | 473 kts | 277° |
| 2026-05-07 14:40 | 57.98138 | -19.68570 | 34049 ft | 473 kts | 277° |
| 2026-05-07 14:40 | 57.98879 | -19.80839 | 34056 ft | 472 kts | 277° |
| 2026-05-07 14:41 | 57.99602 | -19.93076 | 34064 ft | 471 kts | 276° |
| 2026-05-07 14:41 | 57.99936 | -20.05308 | 34061 ft | 472 kts | 271° |
| 2026-05-07 14:42 | 57.99821 | -20.17650 | 34064 ft | 474 kts | 270° |
| 2026-05-07 14:42 | 57.99669 | -20.29995 | 34067 ft | 474 kts | 270° |
| 2026-05-07 14:43 | 57.99504 | -20.42392 | 34069 ft | 475 kts | 270° |
| 2026-05-07 14:43 | 57.99329 | -20.54746 | 34070 ft | 475 kts | 270° |
| 2026-05-07 14:44 | 57.99142 | -20.67159 | 34074 ft | 475 kts | 269° |
| 2026-05-07 14:44 | 57.98945 | -20.79518 | 34078 ft | 475 kts | 269° |
| 2026-05-07 14:45 | 57.98736 | -20.91897 | 34082 ft | 475 kts | 269° |
| 2026-05-07 14:45 | 57.98513 | -21.04272 | 34081 ft | 475 kts | 269° |
| 2026-05-07 14:46 | 57.98277 | -21.16692 | 34083 ft | 475 kts | 270° |
| 2026-05-07 14:46 | 57.98032 | -21.29015 | 34087 ft | 475 kts | 270° |
| 2026-05-07 14:47 | 57.97772 | -21.41475 | 34089 ft | 476 kts | 270° |
| 2026-05-07 14:47 | 57.97503 | -21.53802 | 34091 ft | 476 kts | 270° |
| 2026-05-07 14:48 | 57.97220 | -21.66215 | 34095 ft | 476 kts | 269° |
| 2026-05-07 14:48 | 57.96925 | -21.78601 | 34098 ft | 475 kts | 269° |
| 2026-05-07 14:49 | 57.96618 | -21.91017 | 34100 ft | 474 kts | 269° |
| 2026-05-07 14:49 | 57.96301 | -22.03312 | 34108 ft | 474 kts | 269° |
| 2026-05-07 14:50 | 57.95971 | -22.15665 | 34107 ft | 476 kts | 269° |
| 2026-05-07 14:50 | 57.95629 | -22.28026 | 34111 ft | 476 kts | 269° |
| 2026-05-07 14:51 | 57.95273 | -22.40423 | 34115 ft | 476 kts | 269° |
| 2026-05-07 14:51 | 57.94906 | -22.52844 | 34119 ft | 476 kts | 269° |
| 2026-05-07 14:52 | 57.94526 | -22.65259 | 34122 ft | 477 kts | 269° |
| 2026-05-07 14:52 | 57.94134 | -22.77639 | 34123 ft | 477 kts | 269° |
| 2026-05-07 14:53 | 57.93730 | -22.90027 | 34125 ft | 476 kts | 269° |
| 2026-05-07 14:53 | 57.93314 | -23.02390 | 34127 ft | 476 kts | 269° |
| 2026-05-07 14:54 | 57.92888 | -23.14690 | 34126 ft | 476 kts | 269° |
| 2026-05-07 14:54 | 57.92449 | -23.27088 | 34129 ft | 476 kts | 269° |
| 2026-05-07 14:55 | 57.91999 | -23.39427 | 34130 ft | 477 kts | 269° |
| 2026-05-07 14:55 | 57.91533 | -23.51854 | 34133 ft | 477 kts | 269° |
| 2026-05-07 14:56 | 57.91055 | -23.64252 | 34135 ft | 477 kts | 269° |
| 2026-05-07 14:56 | 57.90568 | -23.76590 | 34138 ft | 477 kts | 268° |
| 2026-05-07 14:57 | 57.90066 | -23.89016 | 34140 ft | 476 kts | 268° |
| 2026-05-07 14:57 | 57.89558 | -24.01314 | 34143 ft | 476 kts | 268° |
| 2026-05-07 14:58 | 57.89034 | -24.13679 | 34145 ft | 477 kts | 268° |
| 2026-05-07 14:58 | 57.88495 | -24.26074 | 34147 ft | 477 kts | 269° |
| 2026-05-07 14:59 | 57.87946 | -24.38436 | 34150 ft | 478 kts | 269° |
| 2026-05-07 14:59 | 57.87386 | -24.50772 | 34152 ft | 477 kts | 269° |
| 2026-05-07 15:00 | 57.86811 | -24.63167 | 34155 ft | 476 kts | 269° |
| 2026-05-07 15:00 | 57.86230 | -24.75447 | 34157 ft | 476 kts | 268° |
| 2026-05-07 15:01 | 57.85636 | -24.87789 | 34159 ft | 476 kts | 268° |
| 2026-05-07 15:01 | 57.85027 | -25.00118 | 34164 ft | 476 kts | 268° |
| 2026-05-07 15:02 | 57.84406 | -25.12448 | 34166 ft | 476 kts | 268° |
| 2026-05-07 15:02 | 57.83776 | -25.24745 | 34175 ft | 476 kts | 268° |
| 2026-05-07 15:03 | 57.83134 | -25.37070 | 34184 ft | 476 kts | 268° |
| 2026-05-07 15:03 | 57.82481 | -25.49321 | 34192 ft | 475 kts | 268° |
| 2026-05-07 15:04 | 57.81814 | -25.61622 | 34198 ft | 475 kts | 268° |
| 2026-05-07 15:04 | 57.81137 | -25.73878 | 34200 ft | 475 kts | 268° |
| 2026-05-07 15:05 | 57.80451 | -25.86084 | 34202 ft | 475 kts | 268° |
| 2026-05-07 15:05 | 57.79750 | -25.98333 | 34205 ft | 475 kts | 268° |
| 2026-05-07 15:06 | 57.79038 | -26.10574 | 34210 ft | 474 kts | 268° |
| 2026-05-07 15:06 | 57.78314 | -26.22814 | 34219 ft | 474 kts | 268° |
| 2026-05-07 15:07 | 57.77582 | -26.34985 | 34217 ft | 474 kts | 268° |
| 2026-05-07 15:07 | 57.76834 | -26.47226 | 34225 ft | 473 kts | 268° |
| 2026-05-07 15:08 | 57.76078 | -26.59353 | 34229 ft | 473 kts | 268° |
| 2026-05-07 15:08 | 57.75310 | -26.71542 | 34229 ft | 474 kts | 267° |
| 2026-05-07 15:09 | 57.74527 | -26.83775 | 34228 ft | 474 kts | 267° |
| 2026-05-07 15:09 | 57.73734 | -26.95967 | 34230 ft | 474 kts | 267° |
| 2026-05-07 15:10 | 57.72929 | -27.08144 | 34230 ft | 473 kts | 267° |
| 2026-05-07 15:10 | 57.72119 | -27.20215 | 34231 ft | 472 kts | 268° |
| 2026-05-07 15:11 | 57.71293 | -27.32350 | 34234 ft | 472 kts | 268° |
| 2026-05-07 15:11 | 57.70455 | -27.44508 | 34236 ft | 471 kts | 268° |
| 2026-05-07 15:12 | 57.69613 | -27.56541 | 34238 ft | 471 kts | 268° |
| 2026-05-07 15:12 | 57.68758 | -27.68588 | 34242 ft | 471 kts | 267° |
| 2026-05-07 15:13 | 57.67882 | -27.80756 | 34243 ft | 472 kts | 267° |
| 2026-05-07 15:13 | 57.67001 | -27.92830 | 34247 ft | 472 kts | 267° |
| 2026-05-07 15:14 | 57.66109 | -28.04885 | 34248 ft | 472 kts | 267° |
| 2026-05-07 15:14 | 57.65205 | -28.16936 | 34251 ft | 471 kts | 267° |
| 2026-05-07 15:15 | 57.64286 | -28.29047 | 34255 ft | 471 kts | 267° |
| 2026-05-07 15:15 | 57.63366 | -28.41009 | 34256 ft | 470 kts | 267° |
| 2026-05-07 15:16 | 57.62425 | -28.53078 | 34265 ft | 470 kts | 267° |
| 2026-05-07 15:16 | 57.61480 | -28.65062 | 34274 ft | 470 kts | 266° |
| 2026-05-07 15:17 | 57.60522 | -28.77044 | 34274 ft | 471 kts | 266° |
| 2026-05-07 15:17 | 57.59549 | -28.89081 | 34279 ft | 471 kts | 267° |
| 2026-05-07 15:18 | 57.58564 | -29.01112 | 34279 ft | 471 kts | 267° |
| 2026-05-07 15:18 | 57.57571 | -29.13079 | 34278 ft | 470 kts | 267° |
| 2026-05-07 15:19 | 57.56570 | -29.25024 | 34279 ft | 470 kts | 267° |
| 2026-05-07 15:19 | 57.55554 | -29.36983 | 34274 ft | 469 kts | 267° |
| 2026-05-07 15:20 | 57.54524 | -29.48980 | 34278 ft | 468 kts | 267° |
| 2026-05-07 15:20 | 57.53497 | -29.60804 | 34282 ft | 467 kts | 267° |
| 2026-05-07 15:21 | 57.52447 | -29.72738 | 34282 ft | 468 kts | 266° |
| 2026-05-07 15:21 | 57.51394 | -29.84561 | 34284 ft | 467 kts | 266° |
| 2026-05-07 15:22 | 57.50590 | -29.96485 | 34283 ft | 463 kts | 272° |
| 2026-05-07 15:22 | 57.50409 | -30.08337 | 34292 ft | 457 kts | 277° |
| 2026-05-07 15:23 | 57.50763 | -30.20010 | 34294 ft | 454 kts | 280° |
| 2026-05-07 15:23 | 57.51202 | -30.31687 | 34302 ft | 454 kts | 280° |
| 2026-05-07 15:24 | 57.51629 | -30.43283 | 34299 ft | 453 kts | 280° |
| 2026-05-07 15:24 | 57.52047 | -30.54944 | 34304 ft | 453 kts | 280° |
| 2026-05-07 15:25 | 57.52453 | -30.66596 | 34305 ft | 452 kts | 279° |
| 2026-05-07 15:25 | 57.52845 | -30.78172 | 34311 ft | 452 kts | 279° |
| 2026-05-07 15:26 | 57.53228 | -30.89783 | 34322 ft | 451 kts | 279° |
| 2026-05-07 15:26 | 57.53599 | -31.01357 | 34312 ft | 451 kts | 279° |
| 2026-05-07 15:27 | 57.53960 | -31.12953 | 34313 ft | 450 kts | 279° |
| 2026-05-07 15:27 | 57.54311 | -31.24567 | 34315 ft | 450 kts | 280° |
| 2026-05-07 15:28 | 57.54650 | -31.36136 | 34326 ft | 449 kts | 280° |
| 2026-05-07 15:28 | 57.54976 | -31.47698 | 34319 ft | 448 kts | 280° |
| 2026-05-07 15:29 | 57.55293 | -31.59213 | 34329 ft | 447 kts | 280° |
| 2026-05-07 15:29 | 57.55597 | -31.70689 | 34332 ft | 446 kts | 279° |
| 2026-05-07 15:30 | 57.55892 | -31.82155 | 34344 ft | 445 kts | 279° |
| 2026-05-07 15:30 | 57.56175 | -31.93647 | 34320 ft | 444 kts | 279° |
| 2026-05-07 15:31 | 57.56446 | -32.05025 | 34355 ft | 442 kts | 279° |
| 2026-05-07 15:31 | 57.56707 | -32.16405 | 34348 ft | 442 kts | 280° |
| 2026-05-07 15:32 | 57.56958 | -32.27785 | 34360 ft | 441 kts | 280° |
| 2026-05-07 15:32 | 57.57200 | -32.39183 | 34341 ft | 442 kts | 280° |
| 2026-05-07 15:33 | 57.57427 | -32.50539 | 34369 ft | 440 kts | 280° |
| 2026-05-07 15:33 | 57.57643 | -32.61788 | 34365 ft | 438 kts | 280° |
| 2026-05-07 15:34 | 57.57851 | -32.73049 | 34361 ft | 438 kts | 279° |
| 2026-05-07 15:34 | 57.58049 | -32.84354 | 34338 ft | 437 kts | 279° |
| 2026-05-07 15:35 | 57.58237 | -32.95565 | 34344 ft | 435 kts | 279° |
| 2026-05-07 15:35 | 57.58411 | -33.06800 | 34360 ft | 434 kts | 280° |
| 2026-05-07 15:36 | 57.58580 | -33.18009 | 34352 ft | 432 kts | 279° |
| 2026-05-07 15:36 | 57.58735 | -33.29092 | 34343 ft | 432 kts | 279° |
| 2026-05-07 15:37 | 57.58881 | -33.40251 | 34347 ft | 431 kts | 280° |
| 2026-05-07 15:37 | 57.59017 | -33.51311 | 34348 ft | 430 kts | 279° |
| 2026-05-07 15:38 | 57.59143 | -33.62402 | 34351 ft | 428 kts | 279° |
| 2026-05-07 15:38 | 57.59256 | -33.73418 | 34351 ft | 429 kts | 279° |
| 2026-05-07 15:39 | 57.59364 | -33.84540 | 34344 ft | 428 kts | 279° |
| 2026-05-07 15:39 | 57.59460 | -33.95517 | 34340 ft | 427 kts | 279° |
| 2026-05-07 15:40 | 57.59546 | -34.06541 | 34336 ft | 426 kts | 279° |
| 2026-05-07 15:40 | 57.59623 | -34.17519 | 34342 ft | 425 kts | 279° |
| 2026-05-07 15:41 | 57.59692 | -34.28451 | 34340 ft | 426 kts | 279° |
| 2026-05-07 15:41 | 57.59750 | -34.39434 | 34350 ft | 425 kts | 278° |
| 2026-05-07 15:42 | 57.59799 | -34.50458 | 34351 ft | 424 kts | 279° |
| 2026-05-07 15:42 | 57.59835 | -34.61361 | 34355 ft | 424 kts | 278° |
| 2026-05-07 15:43 | 57.59864 | -34.72330 | 34365 ft | 425 kts | 278° |
| 2026-05-07 15:43 | 57.59885 | -34.83261 | 34353 ft | 425 kts | 277° |
| 2026-05-07 15:44 | 57.59895 | -34.94261 | 34357 ft | 424 kts | 277° |
| 2026-05-07 15:44 | 57.59897 | -35.05143 | 34350 ft | 424 kts | 277° |
| 2026-05-07 15:45 | 57.59887 | -35.16125 | 34356 ft | 423 kts | 277° |
| 2026-05-07 15:45 | 57.59869 | -35.27025 | 34356 ft | 422 kts | 277° |
| 2026-05-07 15:46 | 57.59826 | -35.43403 | 34352 ft | 423 kts | 277° |
| 2026-05-07 15:47 | 57.59782 | -35.54283 | 34355 ft | 422 kts | 277° |
| 2026-05-07 15:47 | 57.59729 | -35.65203 | 34353 ft | 422 kts | 276° |
| 2026-05-07 15:48 | 57.59669 | -35.76029 | 34342 ft | 421 kts | 276° |
| 2026-05-07 15:48 | 57.59600 | -35.86984 | 34341 ft | 422 kts | 276° |
| 2026-05-07 15:49 | 57.59521 | -35.97837 | 34338 ft | 422 kts | 276° |
| 2026-05-07 15:49 | 57.59434 | -36.08667 | 34336 ft | 420 kts | 275° |
| 2026-05-07 15:50 | 57.59336 | -36.19512 | 34331 ft | 420 kts | 276° |
| 2026-05-07 15:50 | 57.59228 | -36.30396 | 34330 ft | 422 kts | 275° |
| 2026-05-07 15:51 | 57.59113 | -36.41295 | 34330 ft | 423 kts | 275° |
| 2026-05-07 15:51 | 57.58985 | -36.52193 | 34332 ft | 423 kts | 276° |
| 2026-05-07 15:52 | 57.58852 | -36.63071 | 34331 ft | 422 kts | 275° |
| 2026-05-07 15:52 | 57.58707 | -36.73940 | 34331 ft | 422 kts | 274° |
| 2026-05-07 15:53 | 57.58553 | -36.84837 | 34330 ft | 422 kts | 274° |
| 2026-05-07 15:53 | 57.58389 | -36.95791 | 34331 ft | 424 kts | 274° |
| 2026-05-07 15:54 | 57.58215 | -37.06706 | 34330 ft | 424 kts | 274° |
| 2026-05-07 15:54 | 57.58033 | -37.17619 | 34326 ft | 424 kts | 274° |
| 2026-05-07 15:55 | 57.57841 | -37.28566 | 34324 ft | 425 kts | 274° |
| 2026-05-07 15:55 | 57.57639 | -37.39552 | 34318 ft | 424 kts | 274° |
| 2026-05-07 15:56 | 57.57428 | -37.50509 | 34318 ft | 424 kts | 274° |
| 2026-05-07 15:56 | 57.57206 | -37.61418 | 34318 ft | 424 kts | 274° |
| 2026-05-07 15:57 | 57.56975 | -37.72348 | 34319 ft | 426 kts | 273° |
| 2026-05-07 15:57 | 57.56736 | -37.83328 | 34313 ft | 425 kts | 273° |
| 2026-05-07 15:58 | 57.56486 | -37.94277 | 34309 ft | 427 kts | 272° |
| 2026-05-07 15:58 | 57.56225 | -38.05274 | 34310 ft | 426 kts | 272° |
| 2026-05-07 15:59 | 57.55956 | -38.16239 | 34313 ft | 426 kts | 272° |
| 2026-05-07 15:59 | 57.55677 | -38.27228 | 34317 ft | 426 kts | 272° |
| 2026-05-07 16:00 | 57.55388 | -38.38177 | 34318 ft | 426 kts | 272° |
| 2026-05-07 16:00 | 57.55090 | -38.49164 | 34316 ft | 427 kts | 272° |
| 2026-05-07 16:01 | 57.54784 | -38.60102 | 34315 ft | 426 kts | 272° |
| 2026-05-07 16:01 | 57.54466 | -38.71099 | 34317 ft | 426 kts | 271° |
| 2026-05-07 16:02 | 57.54140 | -38.82042 | 34316 ft | 426 kts | 271° |
| 2026-05-07 16:02 | 57.53802 | -38.93043 | 34312 ft | 426 kts | 271° |
| 2026-05-07 16:03 | 57.53456 | -39.04016 | 34315 ft | 426 kts | 271° |
| 2026-05-07 16:03 | 57.53102 | -39.14939 | 34313 ft | 426 kts | 271° |
| 2026-05-07 16:04 | 57.52737 | -39.25921 | 34314 ft | 427 kts | 270° |
| 2026-05-07 16:04 | 57.52361 | -39.36916 | 34310 ft | 427 kts | 270° |
| 2026-05-07 16:05 | 57.51977 | -39.47856 | 34308 ft | 427 kts | 271° |
| 2026-05-07 16:05 | 57.51584 | -39.58812 | 34306 ft | 427 kts | 270° |
| 2026-05-07 16:06 | 57.51176 | -39.69851 | 34309 ft | 428 kts | 270° |
| 2026-05-07 16:06 | 57.50761 | -39.80830 | 34306 ft | 428 kts | 269° |
| 2026-05-07 16:07 | 57.50335 | -39.91803 | 34306 ft | 429 kts | 269° |
| 2026-05-07 16:07 | 57.49993 | -40.02873 | 34306 ft | 428 kts | 272° |
| 2026-05-07 16:08 | 57.49878 | -40.13898 | 34303 ft | 428 kts | 272° |
| 2026-05-07 16:08 | 57.49751 | -40.24912 | 34305 ft | 427 kts | 272° |
| 2026-05-07 16:09 | 57.49616 | -40.35865 | 34301 ft | 428 kts | 272° |
| 2026-05-07 16:09 | 57.49471 | -40.46859 | 34295 ft | 428 kts | 271° |
| 2026-05-07 16:10 | 57.49318 | -40.57863 | 34289 ft | 428 kts | 271° |
| 2026-05-07 16:10 | 57.49151 | -40.68874 | 34293 ft | 428 kts | 271° |
| 2026-05-07 16:11 | 57.48976 | -40.79843 | 34287 ft | 428 kts | 271° |
| 2026-05-07 16:11 | 57.48793 | -40.90861 | 34282 ft | 427 kts | 270° |
| 2026-05-07 16:12 | 57.48603 | -41.01819 | 34282 ft | 427 kts | 270° |
| 2026-05-07 16:12 | 57.48400 | -41.12820 | 34277 ft | 428 kts | 270° |
| 2026-05-07 16:13 | 57.48186 | -41.23897 | 34274 ft | 429 kts | 270° |
| 2026-05-07 16:13 | 57.47963 | -41.34879 | 34270 ft | 428 kts | 270° |
| 2026-05-07 16:14 | 57.47731 | -41.45898 | 34276 ft | 428 kts | 270° |
| 2026-05-07 16:14 | 57.47488 | -41.56911 | 34271 ft | 428 kts | 270° |
| 2026-05-07 16:15 | 57.47240 | -41.67827 | 34271 ft | 428 kts | 269° |
| 2026-05-07 16:15 | 57.46977 | -41.78902 | 34259 ft | 428 kts | 269° |
| 2026-05-07 16:16 | 57.46709 | -41.89845 | 34252 ft | 428 kts | 269° |
| 2026-05-07 16:16 | 57.46430 | -42.00874 | 34248 ft | 429 kts | 269° |
| 2026-05-07 16:17 | 57.46140 | -42.11920 | 34242 ft | 428 kts | 269° |
| 2026-05-07 16:17 | 57.45842 | -42.22867 | 34239 ft | 429 kts | 269° |
| 2026-05-07 16:18 | 57.45535 | -42.33840 | 34238 ft | 428 kts | 269° |
| 2026-05-07 16:18 | 57.45216 | -42.44850 | 34232 ft | 428 kts | 269° |
| 2026-05-07 16:19 | 57.44889 | -42.55808 | 34228 ft | 427 kts | 269° |
| 2026-05-07 16:19 | 57.44556 | -42.66744 | 34223 ft | 427 kts | 268° |
| 2026-05-07 16:20 | 57.44208 | -42.77749 | 34222 ft | 428 kts | 267° |
| 2026-05-07 16:20 | 57.43851 | -42.88709 | 34225 ft | 428 kts | 267° |
| 2026-05-07 16:21 | 57.43486 | -42.99670 | 34225 ft | 427 kts | 267° |
| 2026-05-07 16:21 | 57.43112 | -43.10614 | 34222 ft | 428 kts | 267° |
| 2026-05-07 16:22 | 57.42728 | -43.21563 | 34197 ft | 427 kts | 267° |
| 2026-05-07 16:22 | 57.42334 | -43.32555 | 34208 ft | 428 kts | 267° |
| 2026-05-07 16:23 | 57.41933 | -43.43494 | 34211 ft | 427 kts | 267° |
| 2026-05-07 16:23 | 57.41518 | -43.54454 | 34211 ft | 427 kts | 267° |
| 2026-05-07 16:24 | 57.41098 | -43.65355 | 34204 ft | 427 kts | 266° |
| 2026-05-07 16:24 | 57.40667 | -43.76285 | 34203 ft | 427 kts | 266° |
| 2026-05-07 16:25 | 57.40227 | -43.87214 | 34196 ft | 427 kts | 265° |
| 2026-05-07 16:25 | 57.39775 | -43.98169 | 34190 ft | 427 kts | 266° |
| 2026-05-07 16:26 | 57.39315 | -44.09132 | 34184 ft | 427 kts | 265° |
| 2026-05-07 16:26 | 57.38847 | -44.20066 | 34182 ft | 427 kts | 265° |
| 2026-05-07 16:27 | 57.38369 | -44.30984 | 34172 ft | 427 kts | 265° |
| 2026-05-07 16:27 | 57.37883 | -44.41852 | 34175 ft | 427 kts | 265° |
| 2026-05-07 16:28 | 57.37384 | -44.52813 | 34166 ft | 428 kts | 265° |
| 2026-05-07 16:28 | 57.36877 | -44.63713 | 34157 ft | 428 kts | 265° |
| 2026-05-07 16:29 | 57.36359 | -44.74622 | 34156 ft | 427 kts | 264° |
| 2026-05-07 16:29 | 57.35833 | -44.85590 | 34152 ft | 427 kts | 264° |
| 2026-05-07 16:30 | 57.35299 | -44.96453 | 34145 ft | 427 kts | 264° |
| 2026-05-07 16:30 | 57.34755 | -45.07338 | 34153 ft | 428 kts | 264° |
| 2026-05-07 16:31 | 57.34201 | -45.18265 | 34135 ft | 428 kts | 264° |
| 2026-05-07 16:31 | 57.33635 | -45.29200 | 34139 ft | 427 kts | 264° |
| 2026-05-07 16:32 | 57.33061 | -45.40104 | 34132 ft | 428 kts | 264° |
| 2026-05-07 16:32 | 57.32480 | -45.50969 | 34133 ft | 428 kts | 264° |
| 2026-05-07 16:33 | 57.31888 | -45.61887 | 34120 ft | 428 kts | 264° |
| 2026-05-07 16:33 | 57.31283 | -45.72808 | 34108 ft | 429 kts | 263° |
| 2026-05-07 16:34 | 57.30676 | -45.83665 | 34110 ft | 428 kts | 262° |
| 2026-05-07 16:34 | 57.30054 | -45.94555 | 34110 ft | 428 kts | 263° |
| 2026-05-07 16:35 | 57.29424 | -46.05432 | 34106 ft | 428 kts | 262° |
| 2026-05-07 16:35 | 57.28782 | -46.16363 | 34102 ft | 429 kts | 262° |
| 2026-05-07 16:36 | 57.28128 | -46.27271 | 34096 ft | 428 kts | 263° |
| 2026-05-07 16:36 | 57.27472 | -46.38125 | 34092 ft | 429 kts | 262° |
| 2026-05-07 16:37 | 57.26801 | -46.49075 | 34086 ft | 428 kts | 262° |
| 2026-05-07 16:37 | 57.26127 | -46.59923 | 34078 ft | 429 kts | 262° |
| 2026-05-07 16:38 | 57.25438 | -46.70796 | 34078 ft | 429 kts | 261° |
| 2026-05-07 16:38 | 57.24739 | -46.81695 | 34077 ft | 429 kts | 261° |
| 2026-05-07 16:39 | 57.24032 | -46.92565 | 34071 ft | 428 kts | 261° |
| 2026-05-07 16:39 | 57.23315 | -47.03442 | 34053 ft | 429 kts | 261° |
| 2026-05-07 16:40 | 57.22590 | -47.14309 | 34054 ft | 429 kts | 261° |
| 2026-05-07 16:40 | 57.21856 | -47.25155 | 34061 ft | 429 kts | 261° |
| 2026-05-07 16:41 | 57.21108 | -47.36096 | 34058 ft | 429 kts | 261° |
| 2026-05-07 16:41 | 57.20351 | -47.46962 | 34054 ft | 430 kts | 261° |
| 2026-05-07 16:42 | 57.19586 | -47.57853 | 34060 ft | 430 kts | 261° |
| 2026-05-07 16:42 | 57.18811 | -47.68736 | 34056 ft | 430 kts | 260° |
| 2026-05-07 16:43 | 57.18029 | -47.79597 | 34045 ft | 430 kts | 260° |
| 2026-05-07 16:43 | 57.17234 | -47.90468 | 34051 ft | 430 kts | 260° |
| 2026-05-07 16:44 | 57.16432 | -48.01318 | 34042 ft | 430 kts | 260° |
| 2026-05-07 16:44 | 57.15619 | -48.12201 | 34053 ft | 430 kts | 260° |